Time;durP1;ratioP1;P1;durP2;ratioP2;P2;SDS_P1;SDS_P2;PMS_P1;PMS_P2;Temp;Humidity;BMP_temperature;BMP_pressure;BME280_temperature;BME280_humidity;BME280_pressure;Samples;Min_cycle;Max_cycle;Signal;HPM_P1;HPM_P2
2022/08/25 00:00:43;;;;;;;28.05;10.15;;;;;;;21.25;54.79;100515.50;5032938;28;20041;-39
2022/08/25 00:03:10;;;;;;;25.13;9.55;;;;;;;21.42;54.94;100536.38;5029822;28;20052;-37
2022/08/25 00:05:36;;;;;;;26.05;10.60;;;;;;;21.43;54.99;100541.59;5034140;28;20049;-39
2022/08/25 00:08:04;;;;;;;28.63;9.73;;;;;;;21.43;54.99;100541.59;5031611;28;20045;-39
2022/08/25 00:10:31;;;;;;;22.00;10.32;;;;;;;21.40;55.00;100547.09;5024829;28;20038;-38
2022/08/25 00:12:58;;;;;;;23.67;11.23;;;;;;;21.41;55.19;100546.13;5030978;28;20045;-38
2022/08/25 00:15:24;;;;;;;25.63;10.73;;;;;;;21.40;55.21;100543.59;5014222;28;20040;-39
2022/08/25 00:17:50;;;;;;;23.17;10.35;;;;;;;21.37;55.19;100544.63;5029143;28;20049;-39
2022/08/25 00:20:16;;;;;;;24.48;10.35;;;;;;;21.37;55.36;100544.63;5033071;28;20037;-39
2022/08/25 00:22:42;;;;;;;26.48;9.52;;;;;;;21.36;55.22;100542.06;5028024;28;20041;-38
2022/08/25 00:25:08;;;;;;;28.77;9.93;;;;;;;21.35;55.40;100546.53;5032056;28;20056;-37
2022/08/25 00:27:34;;;;;;;33.80;10.05;;;;;;;21.16;55.38;100516.06;5032284;28;20061;-38
2022/08/25 00:30:00;;;;;;;29.10;10.18;;;;;;;21.33;55.46;100542.28;5029039;28;20754;-38
2022/08/25 00:32:26;;;;;;;21.92;10.38;;;;;;;21.31;55.46;100531.78;5014471;28;20429;-38
2022/08/25 00:34:52;;;;;;;27.10;11.38;;;;;;;21.32;55.55;100544.06;5045772;28;20056;-38
2022/08/25 00:37:18;;;;;;;32.42;11.55;;;;;;;21.30;55.35;100542.50;5027041;28;20068;-37
2022/08/25 00:39:45;;;;;;;29.95;11.50;;;;;;;21.30;55.25;100545.13;5030665;28;20049;-37
2022/08/25 00:42:11;;;;;;;28.23;11.15;;;;;;;21.30;55.41;100543.31;5022515;28;20110;-38
2022/08/25 00:44:38;;;;;;;30.95;11.32;;;;;;;21.00;55.53;100495.88;5028740;28;20470;-38
2022/08/25 00:47:04;;;;;;;46.50;10.85;;;;;;;21.12;55.54;100513.59;5029182;28;20464;-39
2022/08/25 00:49:38;;;;;;;30.05;10.02;;;;;;;21.27;55.66;100540.88;5025434;28;20513;-40
2022/08/25 00:52:12;;;;;;;30.75;10.43;;;;;;;21.26;55.63;100541.81;5004615;28;20045;-39
2022/08/25 00:54:42;;;;;;;26.52;10.50;;;;;;;21.26;55.47;100533.03;5013935;28;20038;-37
2022/08/25 00:57:11;;;;;;;30.38;10.57;;;;;;;21.25;55.70;100534.81;5018046;28;20045;-38
2022/08/25 00:59:37;;;;;;;28.65;10.32;;;;;;;21.26;55.63;100540.97;5021516;28;20042;-38
2022/08/25 01:02:06;;;;;;;29.30;9.95;;;;;;;21.24;55.64;100538.44;5030197;28;20056;-38
2022/08/25 01:04:32;;;;;;;25.67;9.40;;;;;;;21.23;55.62;100534.09;5025093;28;20508;-39
2022/08/25 01:06:59;;;;;;;32.72;9.30;;;;;;;21.22;55.78;100540.34;5019454;28;20049;-38
2022/08/25 01:09:25;;;;;;;27.30;8.52;;;;;;;20.97;55.65;100501.38;5029023;28;20040;-38
2022/08/25 01:11:51;;;;;;;21.17;8.88;;;;;;;21.17;55.67;100534.50;5031149;28;20753;-38
2022/08/25 01:14:19;;;;;;;19.73;8.85;;;;;;;21.03;55.71;100511.56;5028233;28;20102;-38
2022/08/25 01:16:45;;;;;;;31.83;10.43;;;;;;;21.17;55.87;100534.50;5012634;28;20049;-39
2022/08/25 01:19:13;;;;;;;30.48;9.63;;;;;;;21.18;55.87;100543.28;5028074;28;20441;-38
2022/08/25 01:21:41;;;;;;;24.08;9.05;;;;;;;21.17;56.07;100529.19;5025612;28;20088;-38
2022/08/25 01:24:09;;;;;;;29.13;9.70;;;;;;;20.92;55.92;100489.38;5015104;28;20045;-38
2022/08/25 01:26:35;;;;;;;21.33;8.38;;;;;;;21.17;55.77;100537.13;5030572;28;20057;-39
2022/08/25 01:29:20;;;;;;;20.20;8.80;;;;;;;21.16;55.83;100537.22;5028880;28;20037;-39
2022/08/25 01:31:51;;;;;;;28.00;9.07;;;;;;;21.14;55.70;100535.53;5029514;28;20037;-38
2022/08/25 01:34:19;;;;;;;21.27;8.25;;;;;;;21.13;55.68;100531.16;5013593;28;20046;-38
2022/08/25 01:36:44;;;;;;;28.33;7.97;;;;;;;21.12;55.65;100536.56;5011452;28;20518;-38
2022/08/25 01:39:11;;;;;;;27.33;8.65;;;;;;;21.12;55.62;100533.91;5021147;28;20040;-39
2022/08/25 01:42:03;;;;;;;20.02;8.98;;;;;;;21.10;55.83;100531.34;5021965;28;20075;-37
2022/08/25 01:44:29;;;;;;;22.02;8.50;;;;;;;21.09;55.67;100534.94;5029887;28;20041;-37
2022/08/25 01:46:55;;;;;;;22.58;9.27;;;;;;;21.10;55.94;100527.84;5029671;28;20037;-38
2022/08/25 01:49:21;;;;;;;22.23;7.72;;;;;;;21.08;55.87;100541.19;5031100;28;20046;-38
2022/08/25 01:51:51;;;;;;;22.08;9.05;;;;;;;21.08;55.96;100537.69;5016216;28;20037;-40
2022/08/25 01:54:18;;;;;;;21.80;8.15;;;;;;;20.94;55.94;100508.63;5029841;28;20414;-38
2022/08/25 01:56:43;;;;;;;22.77;9.10;;;;;;;21.09;55.91;100542.06;5021956;28;20096;-38
2022/08/25 01:59:09;;;;;;;18.52;8.98;;;;;;;21.08;55.93;100535.06;5027217;28;20049;-39
2022/08/25 02:01:35;;;;;;;17.10;8.48;;;;;;;21.08;56.05;100535.91;5012164;28;20062;-38
2022/08/25 02:04:01;;;;;;;22.55;8.40;;;;;;;21.07;55.98;100533.34;5028105;28;20043;-38
2022/08/25 02:06:31;;;;;;;23.40;8.60;;;;;;;21.05;56.11;100532.59;5030838;28;20041;-38
2022/08/25 02:09:06;;;;;;;25.52;9.25;;;;;;;21.02;56.20;100533.66;5012558;28;20040;-37
2022/08/25 02:11:34;;;;;;;23.30;8.45;;;;;;;21.04;56.00;100547.59;5029810;28;20041;-39
2022/08/25 02:14:00;;;;;;;24.08;8.55;;;;;;;20.87;56.07;100518.78;5031395;28;20045;-38
2022/08/25 02:16:29;;;;;;;22.60;9.20;;;;;;;21.00;56.10;100542.63;5031304;28;20207;-39
2022/08/25 02:18:58;;;;;;;28.23;9.00;;;;;;;20.96;56.18;100535.81;5029583;28;20049;-38
2022/08/25 02:21:24;;;;;;;24.02;9.40;;;;;;;20.96;56.30;100539.31;5031839;28;20080;-40
2022/08/25 02:23:49;;;;;;;27.83;9.30;;;;;;;20.97;56.42;100545.47;5029984;28;20057;-38
2022/08/25 02:26:17;;;;;;;20.05;9.15;;;;;;;20.95;56.59;100539.41;5030869;28;20052;-38
2022/08/25 02:28:45;;;;;;;21.05;8.73;;;;;;;20.94;56.61;100543.84;5030734;28;20145;-38
2022/08/25 02:31:12;;;;;;;22.35;8.98;;;;;;;20.92;56.63;100547.56;5031544;28;20045;-38
2022/08/25 02:33:37;;;;;;;23.15;9.38;;;;;;;20.94;56.76;100543.84;5007168;28;20529;-38
2022/08/25 02:36:03;;;;;;;25.45;9.88;;;;;;;20.91;56.75;100537.91;5020087;28;20041;-37
2022/08/25 02:38:29;;;;;;;20.77;9.73;;;;;;;20.94;56.75;100540.34;5016176;28;20046;-38
2022/08/25 02:40:57;;;;;;;24.58;8.50;;;;;;;20.94;56.92;100538.56;5028554;28;20044;-38
2022/08/25 02:43:24;;;;;;;20.35;8.80;;;;;;;20.95;56.73;100531.47;5012757;28;20539;-38
2022/08/25 02:45:55;;;;;;;26.10;9.48;;;;;;;20.96;56.85;100539.31;5027574;28;20041;-38
2022/08/25 02:48:20;;;;;;;20.65;9.00;;;;;;;20.96;56.69;100536.69;5028926;28;20044;-38
2022/08/25 02:50:48;;;;;;;22.90;8.85;;;;;;;20.96;56.81;100536.69;5029233;28;20033;-38
2022/08/25 02:53:14;;;;;;;31.98;9.90;;;;;;;20.93;57.07;100534.25;5025049;28;20433;-38
2022/08/25 02:55:39;;;;;;;24.98;10.00;;;;;;;20.94;57.09;100535.06;5027595;28;20179;-38
2022/08/25 02:58:05;;;;;;;32.15;10.73;;;;;;;20.88;57.03;100524.91;5029209;28;20505;-38
2022/08/25 03:00:31;;;;;;;23.33;8.98;;;;;;;20.94;56.85;100530.63;5029116;28;20102;-38
2022/08/25 03:02:57;;;;;;;23.08;9.35;;;;;;;20.94;56.89;100532.41;5028111;28;20520;-38
2022/08/25 03:05:23;;;;;;;20.55;9.32;;;;;;;20.94;56.88;100538.56;5016292;28;20475;-38
2022/08/25 03:07:48;;;;;;;22.92;9.30;;;;;;;20.96;57.06;100541.13;5030187;28;20607;-38
2022/08/25 03:10:17;;;;;;;25.77;9.73;;;;;;;20.93;56.94;100539.53;5022529;28;20048;-38
2022/08/25 03:12:44;;;;;;;16.80;8.75;;;;;;;20.99;56.84;100540.91;5028784;28;20861;-39
2022/08/25 03:15:10;;;;;;;23.45;9.77;;;;;;;21.00;56.97;100542.63;5026095;28;20163;-38
2022/08/25 03:17:36;;;;;;;21.25;8.98;;;;;;;20.96;56.81;100525.25;5029039;28;20045;-39
2022/08/25 03:20:04;;;;;;;21.42;8.63;;;;;;;21.03;56.96;100534.50;5028603;28;20502;-38
2022/08/25 03:22:30;;;;;;;25.92;8.88;;;;;;;21.02;56.99;100530.16;5028765;28;20095;-38
2022/08/25 03:26:52;;;;;;;22.20;9.35;;;;;;;21.07;56.88;100528.06;5029866;28;20036;-39
2022/08/25 03:27:42;;;;;;;20.52;9.63;;;;;;;21.08;56.94;100540.34;5050841;28;20107;-39
2022/08/25 03:30:09;;;;;;;21.92;9.18;;;;;;;21.08;56.90;100535.06;5023706;28;20571;-37
2022/08/25 03:32:35;;;;;;;22.30;9.43;;;;;;;21.10;56.94;100536.63;5028792;28;20509;-38
2022/08/25 03:35:00;;;;;;;23.23;8.85;;;;;;;21.13;56.94;100541.75;5023249;28;20140;-38
2022/08/25 03:37:26;;;;;;;18.50;9.45;;;;;;;21.16;56.98;100530.13;5023509;28;20521;-38
2022/08/25 03:39:52;;;;;;;24.10;10.25;;;;;;;21.14;57.20;100527.59;5026194;28;20045;-37
2022/08/25 03:42:18;;;;;;;26.58;10.57;;;;;;;21.21;57.45;100524.56;5042942;28;20037;-38
2022/08/25 03:44:44;;;;;;;28.13;11.70;;;;;;;21.24;57.44;100527.88;5044407;28;20045;-38
2022/08/25 03:47:10;;;;;;;21.98;10.27;;;;;;;21.29;57.24;100530.22;5027884;28;20037;-38
2022/08/25 03:49:36;;;;;;;27.23;10.50;;;;;;;21.34;57.36;100525.47;5014423;28;20042;-38
2022/08/25 03:52:02;;;;;;;26.40;9.68;;;;;;;21.19;57.16;100500.88;5028228;28;20041;-38
2022/08/25 03:54:27;;;;;;;26.02;11.07;;;;;;;21.44;57.21;100530.06;5024948;28;20065;-38
2022/08/25 03:56:53;;;;;;;28.45;10.90;;;;;;;21.49;57.14;100530.59;5009155;28;20557;-38
2022/08/25 03:59:19;;;;;;;26.05;9.60;;;;;;;21.35;57.04;100492.78;5024492;28;20433;-37
2022/08/25 04:01:46;;;;;;;32.17;10.50;;;;;;;21.60;57.06;100529.88;5027986;28;20076;-38
2022/08/25 04:04:13;;;;;;;31.27;10.75;;;;;;;21.52;57.12;100500.41;5027767;28;20041;-38
2022/08/25 04:06:40;;;;;;;41.10;12.38;;;;;;;21.72;56.89;100522.94;5027403;28;20091;-38
2022/08/25 04:09:06;;;;;;;35.17;11.30;;;;;;;21.75;56.94;100522.72;5023083;28;20038;-38
2022/08/25 04:11:32;;;;;;;37.42;11.88;;;;;;;21.82;57.11;100529.31;5028284;28;20049;-37
2022/08/25 04:14:00;;;;;;;33.90;10.98;;;;;;;21.88;56.74;100529.72;5028411;28;20045;-39
2022/08/25 04:16:29;;;;;;;35.83;11.90;;;;;;;21.93;56.71;100527.59;5028798;28;21683;-38
2022/08/25 04:18:56;;;;;;;32.85;11.95;;;;;;;22.02;56.49;100520.88;5028575;28;20113;-38
2022/08/25 04:21:23;;;;;;;42.08;12.40;;;;;;;22.09;56.36;100516.00;5028201;28;20092;-38
2022/08/25 04:23:50;;;;;;;41.55;12.52;;;;;;;22.14;56.02;100511.25;5009485;28;20160;-38
2022/08/25 04:26:25;;;;;;;47.45;18.42;;;;;;;22.22;55.83;100517.72;5012269;28;20128;-38
2022/08/25 04:28:52;;;;;;;29.50;11.55;;;;;;;22.29;55.39;100515.50;5022078;28;20065;-39
2022/08/25 04:31:20;;;;;;;35.03;11.88;;;;;;;22.37;55.09;100518.44;5043633;28;20846;-39
2022/08/25 04:33:47;;;;;;;31.60;10.70;;;;;;;22.29;54.70;100484.56;5010880;28;20580;-38
2022/08/25 04:36:14;;;;;;;34.60;12.43;;;;;;;22.52;54.46;100506.75;5026121;28;20033;-38
2022/08/25 04:38:41;;;;;;;30.73;11.93;;;;;;;22.63;54.22;100512.16;5028220;28;20107;-38
2022/08/25 04:41:09;;;;;;;28.73;11.60;;;;;;;22.70;53.96;100513.41;5010212;28;20045;-38
2022/08/25 04:43:36;;;;;;;31.88;11.20;;;;;;;22.81;53.51;100507.38;5015607;28;20038;-38
2022/08/25 04:46:07;;;;;;;30.02;11.75;;;;;;;22.91;53.05;100505.75;5026307;28;20037;-38
2022/08/25 04:48:33;;;;;;;26.20;11.00;;;;;;;22.85;52.98;100476.19;5028605;28;20453;-38
2022/08/25 04:51:04;;;;;;;35.28;11.68;;;;;;;23.12;52.93;100506.84;5029432;28;20041;-39
2022/08/25 04:53:32;;;;;;;28.83;11.88;;;;;;;23.22;52.65;100513.19;5032312;28;20044;-37
2022/08/25 04:55:57;;;;;;;28.30;11.10;;;;;;;23.33;51.72;100503.56;5014783;28;20497;-38
2022/08/25 04:58:23;;;;;;;30.75;10.93;;;;;;;23.41;50.90;100501.19;5030243;28;20099;-38
2022/08/25 05:00:49;;;;;;;22.88;10.00;;;;;;;23.54;50.08;100499.34;5048283;28;20057;-37
2022/08/25 05:03:16;;;;;;;23.23;10.77;;;;;;;23.64;49.63;100503.00;5030571;28;20524;-39
2022/08/25 05:05:41;;;;;;;23.58;10.40;;;;;;;23.76;49.46;100506.53;5025484;28;20030;-38
2022/08/25 05:08:08;;;;;;;23.15;10.02;;;;;;;23.86;49.28;100508.38;5027995;28;20048;-39
2022/08/25 05:10:39;;;;;;;29.73;10.32;;;;;;;23.99;49.05;100505.63;5018705;28;20041;-38
2022/08/25 05:13:05;;;;;;;28.77;10.95;;;;;;;23.88;48.83;100465.75;5020727;28;20069;-39
2022/08/25 05:15:49;;;;;;;29.40;11.15;;;;;;;24.19;48.53;100499.63;5021768;28;20080;-38
2022/08/25 05:18:19;;;;;;;29.35;11.90;;;;;;;24.32;48.46;100500.38;5022556;28;20041;-38
2022/08/25 05:20:45;;;;;;;25.45;10.95;;;;;;;24.44;48.42;100501.25;5018166;28;20054;-38
2022/08/25 05:23:11;;;;;;;24.58;10.95;;;;;;;24.51;48.03;100485.63;5022919;28;20064;-38
2022/08/25 05:25:37;;;;;;;25.17;11.13;;;;;;;24.68;47.53;100491.31;5028403;28;20072;-38
2022/08/25 05:28:03;;;;;;;25.27;11.10;;;;;;;24.79;47.03;100493.94;5030782;28;20902;-37
2022/08/25 05:30:29;;;;;;;21.58;10.60;;;;;;;24.95;46.54;100498.91;5030873;28;20041;-38
2022/08/25 05:32:56;;;;;;;22.75;11.55;;;;;;;25.09;46.71;100493.31;5030521;28;20045;-38
2022/08/25 05:35:21;;;;;;;26.13;11.55;;;;;;;25.22;45.82;100490.50;5026333;28;20509;-39
2022/08/25 05:37:47;;;;;;;28.58;11.30;;;;;;;25.39;45.48;100495.25;5026941;28;20044;-39
2022/08/25 05:40:13;;;;;;;27.00;11.15;;;;;;;25.54;45.06;100493.97;5023807;28;20044;-37
2022/08/25 05:42:39;;;;;;;25.63;11.25;;;;;;;25.67;44.77;100493.81;4997737;28;20038;-38
2022/08/25 05:45:05;;;;;;;25.25;10.77;;;;;;;25.82;43.97;100494.34;5022623;28;20549;-38
2022/08/25 05:47:31;;;;;;;27.30;11.70;;;;;;;25.71;43.49;100464.13;5031833;28;20048;-38
2022/08/25 05:49:57;;;;;;;31.85;11.43;;;;;;;26.05;42.87;100488.75;5023332;28;20037;-38
2022/08/25 05:52:23;;;;;;;20.48;10.82;;;;;;;26.01;42.63;100457.97;5027824;28;20051;-38
2022/08/25 05:54:49;;;;;;;19.38;9.95;;;;;;;26.33;42.19;100489.03;5025365;28;22135;-38
2022/08/25 05:57:15;;;;;;;21.52;10.48;;;;;;;26.50;41.73;100483.09;5021779;28;20480;-38
2022/08/25 05:59:40;;;;;;;19.27;9.30;;;;;;;26.70;41.59;100484.84;5021749;28;20481;-39
2022/08/25 06:04:50;;;;;;;22.05;11.30;;;;;;;27.07;39.78;100486.91;5031232;28;20041;-39
2022/08/25 06:07:16;;;;;;;18.48;9.82;;;;;;;27.18;38.90;100489.44;5030430;28;20448;-39
2022/08/25 06:09:44;;;;;;;21.33;9.60;;;;;;;27.33;38.15;100485.38;5030585;28;20124;-38
2022/08/25 06:12:10;;;;;;;19.70;9.48;;;;;;;27.61;37.66;100483.72;5030352;28;20571;-37
2022/08/25 06:14:36;;;;;;;16.13;9.43;;;;;;;28.19;36.66;100484.47;5031411;28;20045;-38
2022/08/25 06:17:02;;;;;;;12.02;8.00;;;;;;;28.78;35.47;100483.25;5050099;28;20041;-39
2022/08/25 06:19:27;;;;;;;14.35;8.40;;;;;;;29.60;34.20;100486.59;5034289;28;20529;-39
2022/08/25 06:21:54;;;;;;;17.90;8.15;;;;;;;30.35;32.94;100486.97;5032032;28;20115;-38
2022/08/25 06:24:21;;;;;;;15.23;7.25;;;;;;;31.21;32.21;100491.16;5031710;28;20502;-38
2022/08/25 06:26:46;;;;;;;17.00;8.80;;;;;;;32.02;31.07;100487.66;5035833;28;20054;-40
2022/08/25 06:29:12;;;;;;;14.15;8.05;;;;;;;32.56;29.54;100483.28;5051092;28;20078;-40
2022/08/25 06:31:38;;;;;;;13.52;7.13;;;;;;;33.00;28.96;100479.06;5025424;28;20037;-38
2022/08/25 06:34:05;;;;;;;13.70;7.45;;;;;;;33.71;28.20;100480.56;5031233;28;20052;-38
2022/08/25 06:36:31;;;;;;;16.23;7.63;;;;;;;34.14;27.62;100483.50;5032240;28;20492;-39
2022/08/25 06:38:56;;;;;;;15.85;7.85;;;;;;;34.43;26.85;100488.97;5050978;28;20044;-38
2022/08/25 06:41:23;;;;;;;15.75;8.15;;;;;;;35.15;25.85;100486.31;5049552;28;20090;-40
2022/08/25 06:43:49;;;;;;;16.67;7.82;;;;;;;35.62;25.23;100486.59;5045036;28;20130;-39
2022/08/25 06:46:20;;;;;;;11.15;8.07;;;;;;;36.39;24.78;100483.00;5030443;28;20051;-40
2022/08/25 06:48:46;;;;;;;17.00;8.68;;;;;;;36.61;23.52;100470.16;5030081;28;20041;-39
2022/08/25 06:51:15;;;;;;;21.70;8.77;;;;;;;36.54;23.44;100475.56;5039006;28;20048;-39
2022/08/25 06:53:42;;;;;;;13.88;8.15;;;;;;;36.87;22.82;100470.28;5030930;28;20402;-41
2022/08/25 06:56:11;;;;;;;15.07;8.55;;;;;;;37.13;22.36;100475.81;5028202;28;20095;-39
2022/08/25 06:58:37;;;;;;;13.55;8.35;;;;;;;37.56;21.93;100470.88;5027141;28;20510;-39
2022/08/25 07:01:12;;;;;;;12.77;7.82;;;;;;;37.99;21.47;100476.69;5027677;28;20141;-38
2022/08/25 07:03:38;;;;;;;16.17;7.97;;;;;;;38.12;20.95;100473.13;5024868;28;20183;-40
2022/08/25 07:06:05;;;;;;;11.52;7.15;;;;;;;38.09;20.72;100474.41;5031911;28;20420;-39
2022/08/25 07:08:31;;;;;;;14.10;8.43;;;;;;;38.88;20.36;100468.69;5029938;28;20112;-39
2022/08/25 07:10:57;;;;;;;12.55;8.10;;;;;;;39.47;19.95;100480.25;5030545;28;20095;-39
2022/08/25 07:13:23;;;;;;;13.52;7.80;;;;;;;39.45;19.84;100476.94;5030114;28;20509;-39
2022/08/25 07:15:53;;;;;;;15.20;7.72;;;;;;;40.18;18.73;100476.06;5028188;28;20098;-38
2022/08/25 07:18:18;;;;;;;12.90;7.13;;;;;;;40.56;18.85;100475.84;5029824;28;20052;-39
2022/08/25 07:20:45;;;;;;;13.18;8.07;;;;;;;41.52;18.17;100471.34;5033801;28;20049;-39
2022/08/25 07:23:10;;;;;;;18.08;8.35;;;;;;;41.71;17.96;100470.19;5029344;28;20121;-39
2022/08/25 07:25:36;;;;;;;14.73;7.60;;;;;;;41.42;17.45;100467.28;5029084;28;20490;-41
2022/08/25 07:28:03;;;;;;;10.98;7.90;;;;;;;41.92;17.12;100468.81;5027218;28;20730;-40
2022/08/25 07:30:29;;;;;;;16.95;8.38;;;;;;;41.68;16.78;100452.38;5029795;28;20033;-41
2022/08/25 07:32:55;;;;;;;16.15;8.20;;;;;;;42.48;16.82;100473.59;5029839;28;20518;-40
2022/08/25 07:35:24;;;;;;;12.00;8.23;;;;;;;43.17;16.12;100475.25;5038850;28;20041;-39
2022/08/25 07:37:57;;;;;;;14.77;7.93;;;;;;;43.15;16.27;100471.09;5029465;28;20037;-39
2022/08/25 07:40:31;;;;;;;14.57;7.55;;;;;;;43.23;15.83;100463.31;5028832;28;20065;-40
2022/08/25 07:43:00;;;;;;;14.45;7.32;;;;;;;43.25;15.76;100469.38;5028695;28;20041;-40
2022/08/25 07:45:29;;;;;;;10.20;7.15;;;;;;;42.78;16.11;100462.44;5029013;28;20067;-38
2022/08/25 07:48:08;;;;;;;15.93;7.47;;;;;;;42.70;16.39;100460.94;5028144;28;20040;-39
2022/08/25 07:50:35;;;;;;;13.90;7.85;;;;;;;43.70;15.57;100455.63;5025656;28;20517;-40
2022/08/25 07:53:01;;;;;;;11.88;8.38;;;;;;;44.57;15.15;100457.63;5029472;28;20041;-39
2022/08/25 07:55:27;;;;;;;13.27;7.75;;;;;;;44.46;14.99;100448.47;5030035;28;20072;-39
2022/08/25 07:57:55;;;;;;;15.65;8.52;;;;;;;44.99;14.44;100453.16;5029138;28;20035;-40
2022/08/25 08:00:22;;;;;;;11.10;7.72;;;;;;;44.73;14.41;100451.25;5029091;28;20029;-39
2022/08/25 08:02:48;;;;;;;19.35;7.78;;;;;;;44.84;14.77;100453.03;5029601;28;20049;-38
2022/08/25 08:05:14;;;;;;;12.88;7.93;;;;;;;44.58;14.74;100442.84;5024826;28;20045;-38
2022/08/25 08:07:40;;;;;;;11.27;7.10;;;;;;;45.16;14.45;100442.09;5027137;28;20137;-38
2022/08/25 08:10:08;;;;;;;11.20;6.93;;;;;;;45.39;14.04;100440.88;5028199;28;20048;-40
2022/08/25 08:12:34;;;;;;;8.85;7.20;;;;;;;45.33;13.80;100434.53;5044049;28;20041;-40
2022/08/25 08:15:01;;;;;;;10.67;6.97;;;;;;;44.81;14.16;100431.56;5028181;28;20034;-41
2022/08/25 08:17:30;;;;;;;13.27;7.50;;;;;;;45.10;14.56;100440.41;5027771;28;20095;-40
2022/08/25 08:19:57;;;;;;;11.00;7.72;;;;;;;45.11;13.94;100433.81;5050983;28;20045;-39
2022/08/25 08:22:23;;;;;;;11.20;6.17;;;;;;;44.51;13.85;100425.72;5033638;28;20033;-40
2022/08/25 08:24:49;;;;;;;12.48;6.95;;;;;;;44.38;13.99;100417.91;5041941;28;20302;-40
2022/08/25 08:27:15;;;;;;;10.68;6.72;;;;;;;44.81;13.78;100423.34;5052196;28;20056;-42
2022/08/25 08:29:41;;;;;;;6.95;6.15;;;;;;;44.51;13.47;100406.53;5053156;28;20051;-43
2022/08/25 08:32:09;;;;;;;14.18;6.38;;;;;;;43.71;13.79;100416.16;5053451;28;20045;-41
2022/08/25 08:34:36;;;;;;;6.82;6.22;;;;;;;43.18;14.21;100418.59;5039815;28;20501;-42
2022/08/25 08:37:02;;;;;;;8.70;6.03;;;;;;;43.61;13.67;100421.47;5032036;28;20037;-42
2022/08/25 08:39:28;;;;;;;7.90;5.80;;;;;;;44.02;13.44;100411.94;5030755;28;20037;-44
2022/08/25 08:42:18;;;;;;;10.68;6.00;;;;;;;45.11;13.21;100414.59;5032006;28;20033;-43
2022/08/25 08:44:49;;;;;;;6.95;6.15;;;;;;;45.54;12.95;100413.53;5047528;28;20069;-42
2022/08/25 08:47:26;;;;;;;9.30;6.63;;;;;;;45.61;12.44;100405.91;5050432;28;20036;-45
2022/08/25 08:50:04;;;;;;;10.00;6.60;;;;;;;46.50;12.57;100405.78;5039034;28;20036;-43
2022/08/25 08:52:39;;;;;;;9.05;6.38;;;;;;;47.19;11.97;100410.88;5032076;28;20063;-42
2022/08/25 08:55:10;;;;;;;9.50;7.38;;;;;;;47.77;11.70;100406.69;5053078;28;20424;-45
2022/08/25 08:57:43;;;;;;;12.10;7.35;;;;;;;48.27;11.11;100408.41;5034212;28;20037;-46
2022/08/25 09:00:09;;;;;;;14.60;7.45;;;;;;;46.90;11.73;100401.50;5032229;28;20064;-45
2022/08/25 09:02:45;;;;;;;7.88;5.60;;;;;;;46.20;11.80;100403.78;5032717;28;20570;-44
2022/08/25 09:05:18;;;;;;;6.55;5.95;;;;;;;45.22;11.94;100391.63;5011528;28;20077;-46
2022/08/25 09:07:48;;;;;;;9.70;6.15;;;;;;;45.47;11.81;100393.75;5025999;28;20137;-45
2022/08/25 09:10:16;;;;;;;8.23;6.18;;;;;;;44.77;12.46;100391.19;5030922;28;20084;-45
2022/08/25 09:13:10;;;;;;;10.10;6.18;;;;;;;45.00;12.03;100380.69;5014400;28;20080;-43
2022/08/25 09:19:11;;;;;;;7.35;6.63;;;;;;;45.77;11.99;100377.41;5011830;28;20173;-44
2022/08/25 09:22:00;;;;;;;9.63;6.72;;;;;;;45.74;11.92;100379.88;5011587;28;20538;-44
2022/08/25 09:25:04;;;;;;;6.88;5.72;;;;;;;44.51;12.52;100363.47;5040878;28;20574;-47
2022/08/25 09:27:40;;;;;;;6.80;5.13;;;;;;;42.87;13.21;100370.69;5051019;28;20056;-45
2022/08/25 09:30:13;;;;;;;5.43;4.93;;;;;;;41.60;14.34;100370.81;5048275;28;20119;-45
2022/08/25 09:32:49;;;;;;;6.05;5.32;;;;;;;39.65;15.69;100360.53;5044906;28;20417;-46
2022/08/25 09:35:21;;;;;;;12.80;6.72;;;;;;;40.25;15.59;100361.56;5014825;28;20045;-44
2022/08/25 09:38:01;;;;;;;12.07;6.35;;;;;;;41.52;15.09;100365.69;5032521;28;20037;-44
2022/08/25 09:40:29;;;;;;;7.53;6.82;;;;;;;41.90;14.46;100369.84;5032231;28;20052;-46
2022/08/25 09:42:58;;;;;;;8.15;5.60;;;;;;;41.98;14.54;100358.53;5054912;28;20501;-44
2022/08/25 09:45:59;;;;;;;9.95;6.75;;;;;;;42.07;14.49;100363.38;5052107;28;20413;-43
2022/08/25 09:48:37;;;;;;;8.25;6.85;;;;;;;43.03;13.48;100361.63;5034407;28;20466;-49
2022/08/25 09:51:34;;;;;;;8.20;6.82;;;;;;;44.61;12.73;100359.97;5032265;28;20041;-44
2022/08/25 09:54:15;;;;;;;6.95;6.35;;;;;;;46.67;11.69;100354.13;5030865;28;20045;-47
2022/08/25 09:56:55;;;;;;;9.25;7.80;;;;;;;48.07;11.25;100356.13;5030678;28;20037;-45
2022/08/25 09:59:25;;;;;;;10.77;7.82;;;;;;;48.89;10.73;100368.28;5049307;28;20044;-48
2022/08/25 10:01:55;;;;;;;7.40;6.70;;;;;;;48.86;10.35;100352.31;5051973;28;20080;-44
2022/08/25 10:04:32;;;;;;;10.63;7.28;;;;;;;48.39;9.89;100353.75;5035708;28;20502;-43
2022/08/25 10:07:00;;;;;;;7.25;5.70;;;;;;;47.05;10.50;100349.19;5031664;28;20068;-43
2022/08/25 10:09:33;;;;;;;13.32;6.80;;;;;;;44.91;11.76;100343.00;5048779;28;20451;-43
2022/08/25 10:12:01;;;;;;;12.95;7.03;;;;;;;45.67;11.48;100349.06;5016560;28;20077;-43
2022/08/25 10:14:31;;;;;;;8.45;6.38;;;;;;;45.84;11.13;100341.47;5010600;28;20045;-47
2022/08/25 10:17:11;;;;;;;7.57;6.90;;;;;;;45.96;11.31;100337.38;5011743;28;20046;-43
2022/08/25 10:19:36;;;;;;;7.78;6.95;;;;;;;46.79;10.83;100351.09;5047258;28;20060;-43
2022/08/25 10:22:25;;;;;;;7.47;6.82;;;;;;;46.21;11.10;100335.84;5050063;28;20505;-44
2022/08/25 10:24:51;;;;;;;8.63;6.00;;;;;;;45.05;11.74;100336.00;5050234;28;20073;-43
2022/08/25 10:27:33;;;;;;;9.57;6.28;;;;;;;44.01;12.25;100329.97;5051101;28;20057;-45
2022/08/25 10:30:07;;;;;;;10.18;7.20;;;;;;;45.01;11.87;100326.63;5030461;28;20524;-45
2022/08/25 10:32:35;;;;;;;7.47;6.72;;;;;;;46.58;10.85;100330.16;5039936;28;20053;-46
2022/08/25 10:35:08;;;;;;;8.38;7.50;;;;;;;46.97;10.95;100328.53;5051257;28;20068;-46
2022/08/25 10:37:36;;;;;;;10.25;6.78;;;;;;;46.73;10.86;100327.41;5047885;28;20041;-44
2022/08/25 10:40:16;;;;;;;11.13;8.00;;;;;;;47.52;10.86;100318.53;5029746;28;20100;-48
2022/08/25 10:43:05;;;;;;;8.18;7.57;;;;;;;48.55;10.38;100328.78;5030990;28;20128;-44
2022/08/25 10:45:43;;;;;;;8.35;7.53;;;;;;;49.22;9.71;100316.91;5029986;28;20040;-44
2022/08/25 10:48:11;;;;;;;13.40;7.05;;;;;;;48.66;10.33;100322.09;5026014;28;20075;-48
2022/08/25 10:50:43;;;;;;;12.52;7.30;;;;;;;47.76;10.37;100319.56;5050686;28;20052;-46
2022/08/25 10:53:21;;;;;;;8.27;7.57;;;;;;;46.97;10.46;100308.41;5048104;28;20040;-45
2022/08/25 10:56:07;;;;;;;7.13;6.15;;;;;;;44.55;12.14;100303.41;5035795;28;20041;-43
2022/08/25 10:58:41;;;;;;;11.27;5.78;;;;;;;42.62;13.19;100289.78;5030645;28;20052;-44
2022/08/25 11:01:35;;;;;;;8.30;6.05;;;;;;;41.56;13.56;100262.28;5030467;28;20180;-43
2022/08/25 11:04:13;;;;;;;9.18;6.80;;;;;;;44.19;12.72;100283.84;5029805;28;20133;-45
2022/08/25 11:06:39;;;;;;;8.32;7.47;;;;;;;46.28;11.50;100281.38;5043810;28;20093;-46
2022/08/25 11:09:08;;;;;;;10.88;7.38;;;;;;;47.73;10.70;100283.47;5041996;28;20573;-46
2022/08/25 11:12:08;;;;;;;9.82;7.63;;;;;;;48.66;10.54;100283.44;5036567;28;20094;-45
2022/08/25 11:14:41;;;;;;;10.50;7.85;;;;;;;49.03;9.91;100282.81;5038032;28;20056;-48
2022/08/25 11:17:25;;;;;;;9.52;7.53;;;;;;;47.38;10.38;100273.38;5030607;28;20052;-47
2022/08/25 11:19:56;;;;;;;8.27;7.47;;;;;;;47.07;10.88;100276.19;5050394;28;20053;-43
2022/08/25 11:22:33;;;;;;;9.32;7.63;;;;;;;46.14;10.97;100239.81;5039193;28;20041;-45
2022/08/25 11:25:11;;;;;;;7.93;7.20;;;;;;;46.59;10.74;100274.81;5049022;28;20053;-44
2022/08/25 11:27:49;;;;;;;8.65;7.50;;;;;;;46.36;11.08;100270.69;5050100;28;20049;-42
2022/08/25 11:30:16;;;;;;;8.35;7.00;;;;;;;45.78;11.40;100262.78;5046153;28;20034;-44
2022/08/25 11:32:51;;;;;;;8.48;7.68;;;;;;;46.50;10.81;100259.09;5032111;28;20044;-45